createdAt,value
2023-01-02T00:01:05.052Z,84.50
2023-01-02T00:04:12.924Z,84.53
2023-01-02T00:07:18.496Z,84.53
2023-01-02T00:10:23.911Z,84.50
2023-01-02T00:13:33.254Z,84.46
2023-01-02T00:16:38.848Z,84.46
2023-01-02T00:19:44.602Z,84.45
2023-01-02T00:22:49.897Z,84.43
2023-01-02T00:25:58.897Z,84.41
2023-01-02T00:29:04.731Z,84.43
2023-01-02T00:32:11.012Z,84.48
2023-01-02T00:35:16.362Z,84.49
2023-01-02T00:38:21.485Z,84.50
2023-01-02T00:41:28.276Z,84.51
2023-01-02T00:44:33.842Z,84.53
2023-01-02T00:47:40.043Z,84.55
2023-01-02T00:50:46.269Z,84.55
2023-01-02T00:53:52.606Z,84.53
2023-01-02T00:56:58.743Z,84.51
2023-01-02T01:00:04.843Z,84.49
2023-01-02T01:03:12.599Z,84.46
2023-01-02T01:06:28.443Z,84.42
2023-01-02T01:09:34.250Z,84.46
2023-01-02T01:12:42.049Z,84.47
2023-01-02T01:15:48.994Z,84.48
2023-01-02T01:18:57.278Z,84.51
2023-01-02T01:22:02.459Z,84.52
2023-01-02T01:25:09.083Z,84.54
2023-01-02T01:28:15.612Z,84.55
2023-01-02T01:31:25.624Z,84.55
2023-01-02T01:34:30.568Z,84.52
2023-01-02T01:37:37.161Z,84.48
2023-01-02T01:40:46.532Z,84.35
2023-01-02T01:44:10.349Z,84.17
2023-01-02T01:47:16.248Z,84.11
2023-01-02T01:50:46.413Z,84.11
2023-01-02T01:53:53.298Z,84.17
2023-01-02T01:57:08.076Z,84.16
2023-01-02T02:00:12.990Z,84.20
2023-01-02T02:03:26.029Z,84.25
2023-01-02T02:06:33.026Z,84.28
2023-01-02T02:09:53.554Z,84.31
2023-01-02T02:12:59.679Z,84.32
2023-01-02T02:16:34.035Z,84.31
2023-01-02T02:20:15.555Z,84.33
2023-01-02T02:23:51.682Z,84.30
2023-01-02T02:27:18.105Z,84.35
2023-01-02T02:30:36.657Z,84.37
2023-01-02T02:34:13.264Z,84.38
2023-01-02T02:37:28.867Z,84.41
2023-01-02T02:40:48.502Z,84.40
2023-01-02T02:44:08.924Z,84.37
2023-01-02T02:47:29.243Z,84.35
2023-01-02T02:50:58.733Z,84.34
2023-01-02T02:54:15.422Z,84.31
2023-01-02T02:57:22.740Z,84.28
2023-01-02T03:00:32.853Z,84.26
2023-01-02T03:03:39.221Z,84.23
2023-01-02T03:06:59.400Z,84.20
2023-01-02T03:10:39.474Z,84.16
2023-01-02T03:14:15.191Z,84.11
2023-01-02T03:17:25.238Z,84.01
2023-01-02T03:20:32.530Z,84.00
2023-01-02T03:23:38.864Z,83.98
2023-01-02T03:26:46.904Z,83.99
2023-01-02T03:30:03.975Z,84.01
2023-01-02T03:33:37.198Z,84.01
2023-01-02T03:36:43.856Z,84.02
2023-01-02T03:39:51.063Z,84.06
2023-01-02T03:43:10.031Z,84.09
2023-01-02T03:46:45.793Z,84.12
2023-01-02T03:49:55.436Z,84.15
2023-01-02T03:53:00.601Z,84.23
2023-01-02T03:56:20.310Z,84.31
2023-01-02T03:59:36.279Z,84.31
2023-01-02T04:03:10.450Z,84.32
2023-01-02T04:06:23.107Z,84.33
2023-01-02T04:09:35.849Z,84.34
2023-01-02T04:12:41.661Z,84.38
2023-01-02T04:15:48.804Z,84.38
2023-01-02T04:19:01.338Z,84.33
2023-01-02T04:22:10.720Z,84.32
2023-01-02T04:25:26.164Z,84.33
2023-01-02T04:28:41.715Z,84.34
2023-01-02T04:32:20.422Z,84.39
2023-01-02T04:35:33.076Z,84.39
2023-01-02T04:38:39.200Z,84.41
2023-01-02T04:41:45.687Z,84.44
2023-01-02T04:44:52.068Z,84.43
2023-01-02T04:47:59.270Z,84.46
2023-01-02T04:51:05.642Z,84.46
2023-01-02T04:54:11.626Z,84.50
2023-01-02T04:57:17.328Z,84.52
2023-01-02T05:00:23.308Z,84.58
2023-01-02T05:03:28.335Z,84.61
2023-01-02T05:06:34.268Z,84.55
2023-01-02T05:09:39.639Z,84.45
2023-01-02T05:12:50.625Z,84.30
2023-01-02T05:15:55.824Z,84.27
2023-01-02T05:19:01.080Z,84.18
2023-01-02T05:22:24.097Z,84.25
2023-01-02T05:25:33.711Z,84.37
2023-01-02T05:28:39.275Z,84.50
2023-01-02T05:31:45.947Z,84.56
2023-01-02T05:34:52.396Z,84.62
2023-01-02T05:37:58.289Z,84.66
2023-01-02T05:41:04.270Z,84.67
2023-01-02T05:44:11.924Z,84.69
2023-01-02T05:47:16.424Z,84.72
2023-01-02T05:50:22.113Z,84.75
2023-01-02T05:53:27.103Z,84.78
2023-01-02T05:56:38.381Z,84.83
2023-01-02T05:59:44.734Z,84.88
2023-01-02T06:02:50.870Z,84.91
2023-01-02T06:06:02.375Z,84.97
2023-01-02T06:09:15.861Z,84.98
2023-01-02T06:12:22.226Z,84.96
2023-01-02T06:15:28.344Z,84.97
2023-01-02T06:18:36.638Z,84.98
2023-01-02T06:21:42.291Z,85.00
2023-01-02T06:24:46.496Z,85.01
2023-01-02T06:27:52.437Z,84.99
2023-01-02T06:30:59.057Z,84.96
2023-01-02T06:34:09.881Z,84.94
2023-01-02T06:37:15.101Z,84.89
2023-01-02T06:40:22.050Z,84.86
2023-01-02T06:43:29.051Z,84.84
2023-01-02T06:46:37.186Z,84.83
2023-01-02T06:49:46.016Z,84.87
2023-01-02T06:52:52.429Z,84.88
2023-01-02T06:56:09.105Z,84.91
2023-01-02T06:59:19.264Z,84.90
2023-01-02T07:02:28.052Z,84.91
2023-01-02T07:05:35.022Z,84.89
2023-01-02T07:08:41.354Z,84.87
2023-01-02T07:11:49.193Z,84.83
2023-01-02T07:14:55.022Z,84.81
2023-01-02T07:18:01.827Z,84.77
2023-01-02T07:21:10.723Z,84.73
2023-01-02T07:24:15.863Z,84.71
2023-01-02T07:27:21.193Z,84.68
2023-01-02T07:30:28.520Z,84.65
2023-01-02T07:33:34.278Z,84.65
2023-01-02T07:36:40.031Z,84.64
2023-01-02T07:39:47.675Z,84.60
2023-01-02T07:42:54.986Z,84.60
2023-01-02T07:46:00.514Z,84.63
2023-01-02T07:49:09.027Z,84.62
2023-01-02T07:52:16.142Z,84.69
2023-01-02T07:55:23.130Z,84.73
2023-01-02T07:58:28.981Z,84.75
2023-01-02T08:01:35.882Z,84.78
2023-01-02T08:04:43.198Z,84.75
2023-01-02T08:07:48.180Z,84.72
2023-01-02T08:10:54.982Z,84.69
2023-01-02T08:14:00.739Z,84.65
2023-01-02T08:17:06.781Z,84.64
2023-01-02T08:20:12.093Z,84.65
2023-01-02T08:23:18.511Z,84.67
2023-01-02T08:26:25.581Z,84.64
2023-01-02T08:29:32.533Z,84.58
2023-01-02T08:32:39.182Z,84.54
2023-01-02T08:35:44.886Z,84.49
2023-01-02T08:38:49.751Z,84.43
2023-01-02T08:42:02.515Z,84.43
2023-01-02T08:45:06.736Z,84.35
2023-01-02T08:48:20.675Z,84.33
2023-01-02T08:51:23.649Z,84.25
2023-01-02T08:54:29.688Z,84.14
2023-01-02T08:57:35.644Z,84.22
2023-01-02T09:00:42.679Z,84.30
2023-01-02T09:03:51.915Z,84.40
2023-01-02T09:07:00.276Z,84.50
2023-01-02T09:10:07.741Z,84.54
2023-01-02T09:13:14.200Z,84.60
2023-01-02T09:16:21.101Z,84.62
2023-01-02T09:19:27.707Z,84.60
2023-01-02T09:22:34.959Z,84.59
2023-01-02T09:25:41.882Z,84.62
2023-01-02T09:28:50.711Z,84.62
2023-01-02T09:31:56.360Z,84.65
2023-01-02T09:35:02.838Z,84.59
2023-01-02T09:38:09.393Z,84.60
2023-01-02T09:41:17.963Z,84.53
2023-01-02T09:44:39.437Z,84.53
2023-01-02T09:47:48.152Z,84.48
2023-01-02T09:50:53.592Z,84.40
2023-01-02T09:54:00.845Z,84.37
2023-01-02T09:57:17.513Z,84.34
2023-01-02T10:00:36.003Z,84.36
2023-01-02T10:03:46.232Z,84.35
2023-01-02T10:06:56.578Z,84.26
2023-01-02T10:10:10.657Z,84.21
2023-01-02T10:16:53.086Z,84.26
2023-01-02T10:20:10.215Z,84.35
2023-01-02T10:23:27.157Z,84.42
2023-01-02T10:26:35.499Z,84.42
2023-01-02T10:29:47.755Z,84.42
2023-01-02T10:32:54.896Z,84.32
2023-01-02T10:36:14.616Z,84.29
2023-01-02T10:39:44.004Z,84.29
2023-01-02T10:42:59.388Z,84.26
2023-01-02T10:46:00.875Z,84.14
2023-01-02T10:49:08.224Z,84.12
2023-01-02T10:52:21.120Z,84.12
2023-01-02T10:55:26.536Z,84.09
2023-01-02T10:58:39.817Z,84.04
2023-01-02T11:01:46.143Z,84.12
2023-01-02T11:04:52.213Z,84.10
2023-01-02T11:07:58.674Z,84.10
2023-01-02T11:11:13.662Z,84.07
2023-01-02T11:14:23.904Z,83.96
2023-01-02T11:17:37.184Z,83.96
2023-01-02T11:20:45.834Z,83.95
2023-01-02T11:23:57.842Z,83.92
2023-01-02T11:27:05.857Z,83.90
2023-01-02T11:30:11.950Z,83.90
2023-01-02T11:33:32.103Z,83.87
2023-01-02T11:36:37.819Z,83.82
2023-01-02T11:39:50.581Z,83.80
2023-01-02T11:43:16.756Z,83.75
2023-01-02T11:46:28.765Z,83.75
2023-01-02T11:49:39.610Z,83.71
2023-01-02T11:52:58.776Z,83.66
2023-01-02T11:56:17.581Z,83.64
2023-01-02T11:59:34.096Z,83.55
2023-01-02T12:02:45.660Z,83.46
2023-01-02T12:06:35.305Z,83.38
2023-01-02T12:10:25.398Z,83.32
2023-01-02T12:13:57.110Z,83.32
2023-01-02T12:17:14.680Z,83.13
2023-01-02T12:20:39.806Z,83.09
2023-01-02T12:24:17.090Z,83.14
2023-01-02T12:27:48.296Z,83.13
2023-01-02T12:31:04.650Z,83.14
2023-01-02T12:34:33.153Z,83.05
2023-01-02T12:37:52.015Z,83.00
2023-01-02T12:41:35.038Z,83.00
2023-01-02T12:44:51.518Z,83.05
2023-01-02T12:48:16.292Z,82.96
2023-01-02T12:51:33.116Z,82.83
2023-01-02T12:55:10.044Z,82.84
2023-01-02T12:58:29.510Z,82.85
2023-01-02T13:01:43.953Z,82.84
2023-01-02T13:05:05.665Z,82.82
2023-01-02T13:08:23.519Z,82.78
2023-01-02T13:11:32.412Z,82.78
2023-01-02T13:14:44.077Z,82.72
2023-01-02T13:18:15.303Z,82.58
2023-01-02T13:21:37.609Z,82.45
2023-01-02T13:24:44.176Z,82.43
2023-01-02T13:27:51.083Z,82.50
2023-01-02T13:31:44.174Z,82.51
2023-01-02T13:34:08.955Z,82.46
2023-01-02T13:37:29.840Z,82.40
2023-01-02T13:40:48.596Z,82.30
2023-01-02T13:43:53.297Z,82.28
2023-01-02T13:47:03.884Z,82.07
2023-01-02T13:50:13.819Z,81.78
2023-01-02T13:53:30.593Z,81.53
2023-01-02T13:56:40.222Z,81.27
2023-01-02T13:59:47.218Z,81.10
2023-01-02T14:02:53.999Z,80.97
2023-01-02T14:06:16.666Z,80.88
2023-01-02T14:09:37.754Z,80.77
2023-01-02T14:12:44.364Z,80.69
2023-01-02T14:15:55.026Z,80.85
2023-01-02T14:19:00.734Z,81.06
2023-01-02T14:22:23.617Z,81.05
2023-01-02T14:25:30.934Z,80.90
2023-01-02T14:28:44.510Z,80.82
2023-01-02T14:31:52.558Z,80.63
2023-01-02T14:35:02.925Z,80.62
2023-01-02T14:38:10.180Z,80.75
2023-01-02T14:41:35.849Z,80.73
2023-01-02T14:44:44.376Z,80.66
2023-01-02T14:47:56.966Z,80.63
2023-01-02T14:51:04.272Z,80.61
2023-01-02T14:54:27.834Z,80.54
2023-01-02T14:57:55.783Z,80.60
2023-01-02T15:01:04.803Z,80.69
2023-01-02T15:04:38.010Z,80.87
2023-01-02T15:07:48.158Z,80.72
2023-01-02T15:11:29.152Z,80.74
2023-01-02T15:14:35.630Z,80.94
2023-01-02T15:17:41.789Z,80.98
2023-01-02T15:20:48.488Z,80.85
2023-01-02T15:24:00.042Z,80.64
2023-01-02T15:27:06.908Z,80.63
2023-01-02T15:30:15.281Z,80.57
2023-01-02T15:33:21.148Z,80.55
2023-01-02T15:36:26.992Z,80.48
2023-01-02T15:39:27.246Z,80.32
2023-01-02T15:42:42.094Z,80.17
2023-01-02T15:45:34.740Z,80.12
2023-01-02T15:48:42.059Z,80.20
2023-01-02T15:51:49.355Z,80.38
2023-01-02T15:54:56.284Z,80.55
2023-01-02T15:58:06.446Z,80.61
2023-01-02T16:01:36.474Z,80.71
2023-01-02T16:04:46.124Z,80.73
2023-01-02T16:07:53.611Z,80.83
2023-01-02T16:11:09.975Z,80.95
2023-01-02T16:14:30.200Z,81.02
2023-01-02T16:17:46.255Z,81.05
2023-01-02T16:20:52.155Z,80.97
2023-01-02T16:23:58.324Z,80.91
2023-01-02T16:27:07.086Z,80.84
2023-01-02T16:30:15.298Z,80.81
2023-01-02T16:33:45.307Z,80.80
2023-01-02T16:36:51.370Z,80.83
2023-01-02T16:40:04.613Z,80.80
2023-01-02T16:43:10.931Z,80.81
2023-01-02T16:46:18.568Z,80.74
2023-01-02T16:49:31.571Z,80.55
2023-01-02T16:52:39.773Z,80.38
2023-01-02T16:55:44.194Z,80.09
2023-01-02T16:58:51.774Z,80.09
2023-01-02T17:01:58.549Z,80.24
2023-01-02T17:05:06.806Z,80.26
2023-01-02T17:08:13.580Z,80.14
2023-01-02T17:11:19.338Z,79.99
2023-01-02T17:14:28.325Z,79.94
2023-01-02T17:17:34.973Z,79.96
2023-01-02T17:20:42.700Z,79.86
2023-01-02T17:23:48.944Z,79.97
2023-01-02T17:26:55.034Z,80.08
2023-01-02T17:30:02.907Z,80.16
2023-01-02T17:33:08.806Z,80.10
2023-01-02T17:36:14.524Z,80.15
2023-01-02T17:39:19.229Z,80.07
2023-01-02T17:42:25.719Z,80.03
2023-01-02T17:45:33.410Z,80.02
2023-01-02T17:48:42.522Z,80.09
2023-01-02T17:51:49.258Z,80.23
2023-01-02T17:54:56.971Z,80.39
2023-01-02T17:58:02.122Z,80.52
2023-01-02T18:01:08.384Z,80.53
2023-01-02T18:04:13.893Z,80.40
2023-01-02T18:07:19.046Z,80.40
2023-01-02T18:10:32.570Z,80.34
2023-01-02T18:13:35.828Z,80.25
2023-01-02T18:16:46.768Z,80.21
2023-01-02T18:19:52.433Z,80.12
2023-01-02T18:22:57.481Z,80.09
2023-01-02T18:26:04.361Z,79.97
2023-01-02T18:29:14.170Z,79.81
2023-01-02T18:32:34.707Z,79.81
2023-01-02T18:36:00.658Z,79.73
2023-01-02T18:38:47.702Z,79.68
2023-01-02T18:41:35.588Z,79.80
2023-01-02T18:44:32.448Z,79.94
2023-01-02T18:47:43.350Z,80.01
2023-01-02T18:50:53.495Z,80.14
2023-01-02T18:54:06.584Z,80.24
2023-01-02T18:57:32.805Z,80.26
2023-01-02T19:00:44.719Z,80.19
2023-01-02T19:03:50.295Z,80.16
2023-01-02T19:07:03.708Z,80.11
2023-01-02T19:10:36.921Z,80.10
2023-01-02T19:13:43.677Z,80.08
2023-01-02T19:16:50.598Z,80.03
2023-01-02T19:19:57.321Z,80.03
2023-01-02T19:23:03.950Z,80.01
2023-01-02T19:26:09.105Z,79.90
2023-01-02T19:29:39.446Z,79.76
2023-01-02T19:32:47.719Z,79.70
2023-01-02T19:36:15.364Z,79.88
2023-01-02T19:39:41.699Z,80.03
2023-01-02T19:42:48.760Z,80.11
2023-01-02T19:45:54.729Z,80.04
2023-01-02T19:49:00.380Z,79.92
2023-01-02T19:52:07.600Z,80.01
2023-01-02T19:55:13.721Z,80.07
2023-01-02T19:58:20.857Z,80.09
2023-01-02T20:01:29.826Z,80.07
2023-01-02T20:04:37.100Z,80.01
2023-01-02T20:07:43.480Z,79.90
2023-01-02T20:10:52.117Z,79.95
2023-01-02T20:13:58.915Z,80.15
2023-01-02T20:17:07.885Z,80.30
2023-01-02T20:20:14.048Z,80.14
2023-01-02T20:23:21.012Z,80.12
2023-01-02T20:26:27.391Z,80.25
2023-01-02T20:29:33.920Z,80.32
2023-01-02T20:32:41.677Z,80.28
2023-01-02T20:35:48.193Z,80.05
2023-01-02T20:38:56.459Z,80.08
2023-01-02T20:42:01.760Z,80.22
2023-01-02T20:45:08.582Z,80.32
2023-01-02T20:48:16.363Z,80.32
2023-01-02T20:51:21.525Z,80.39
2023-01-02T20:54:27.370Z,80.52
2023-01-02T20:57:33.365Z,80.69
2023-01-02T21:00:39.773Z,80.75
2023-01-02T21:03:46.199Z,80.77
2023-01-02T21:06:53.982Z,80.65
2023-01-02T21:10:01.882Z,80.41
2023-01-02T21:13:20.118Z,80.26
2023-01-02T21:16:26.202Z,80.29
2023-01-02T21:19:31.576Z,80.18
2023-01-02T21:22:36.769Z,79.94
2023-01-02T21:25:43.267Z,79.82
2023-01-02T21:28:53.778Z,79.92
2023-01-02T21:32:00.039Z,80.08
2023-01-02T21:35:05.471Z,80.25
2023-01-02T21:38:12.044Z,80.40
2023-01-02T21:41:35.602Z,80.50
2023-01-02T21:44:42.259Z,80.48
2023-01-02T21:47:48.908Z,80.48
2023-01-02T21:50:56.802Z,80.46
2023-01-02T21:54:03.429Z,80.58
2023-01-02T21:57:10.560Z,80.48
2023-01-02T22:00:15.729Z,80.26
2023-01-02T22:03:21.067Z,80.13
2023-01-02T22:06:28.489Z,80.16
2023-01-02T22:09:37.053Z,80.12
2023-01-02T22:12:43.364Z,80.22
2023-01-02T22:15:49.770Z,80.25
2023-01-02T22:18:56.174Z,80.26
2023-01-02T22:22:03.209Z,80.36
2023-01-02T22:25:08.583Z,80.35
2023-01-02T22:28:15.469Z,80.22
2023-01-02T22:31:21.980Z,80.09
2023-01-02T22:34:29.130Z,80.08
2023-01-02T22:37:36.893Z,80.15
2023-01-02T22:40:43.751Z,80.30
2023-01-02T22:43:54.504Z,80.35
2023-01-02T22:47:04.190Z,80.18
2023-01-02T22:50:12.469Z,80.03
2023-01-02T22:53:21.525Z,80.00
2023-01-02T22:56:36.998Z,79.91
2023-01-02T22:59:43.730Z,79.79
2023-01-02T23:02:51.169Z,79.87
2023-01-02T23:05:57.680Z,79.95
2023-01-02T23:09:05.657Z,80.10
2023-01-02T23:12:11.793Z,80.16
2023-01-02T23:15:20.992Z,79.93
2023-01-02T23:18:44.740Z,79.98
2023-01-02T23:21:52.055Z,80.13
2023-01-02T23:24:57.398Z,80.32
2023-01-02T23:28:05.143Z,80.36
2023-01-02T23:31:11.095Z,80.31
2023-01-02T23:34:17.818Z,80.16
2023-01-02T23:37:23.320Z,80.01
2023-01-02T23:40:34.099Z,80.14
2023-01-02T23:43:37.114Z,80.19
2023-01-02T23:46:42.502Z,80.29
2023-01-02T23:49:48.056Z,80.33
2023-01-02T23:52:54.205Z,80.38
2023-01-02T23:56:00.605Z,80.41
2023-01-02T23:59:10.379Z,80.31
